Jump to content

Charlieg

Members
  • Content Count

    23
  • Joined

  • Last visited

Community Reputation

2 Neutral

About Charlieg

  • Rank
    Flight Student - Groundwork
  1. Getting this error for every route I plan in Europe. Sure it must be some definition file but have looked and searched on W3. Nothing.
  2. Hi, I am planning a flight from LYTV to EHAM and I am getting a >25% Dist Increase. The METAR is LYTV 221430Z VRB03KT CAVOK 15/05 Q1031 NOSIG and plane is a PMDG NGXU 737-800 This is the route and as I see it the problem is a big leg out to PARAK and I don't understand it. I have listed a Smibrief route as No. 2 1). NIK1P NIK P129 GENLU DCT PARAK DCT GOTAR DCT LIMRA DCT LAMSI L604 RUDNO DCT MAPOX L604 RELBI L602 RKN RKN2B 2). KOFE1P KOFER DCT NUPSO DCT ALIVO DCT SIMBA DCT RUDNO DCT MAPOX DCT NORKU NORK2A This the route in the opposite direction and is 43
  3. Can I suggest before you close this you make sure you have link on the A330 page saying you need to install this font XXX if you are seeing digit problems, I actually removed the whole of P3DV5 and reinstalled everything when a very simple 2 minute download and paste would have fixed my problem.
  4. That Font install fixed my problem, thanks skystar. Seems crazy such a fundamental issue can get this far without more people having the problem.
  5. I am having this issue as well, not sure what is happening with it as the topic has been closed?
×
×
  • Create New...